Aroma, Missouri
Current Conditions -  °F | °C
As of 10:55 PM on Friday 19 Dec 2014 (Local Time) from KHFJ Reporting Station
Haze Haze  
Wind Chill:   Ceiling: 500
Heat Index:   Visibility: 5mi
Dew Point:   Wind: 5mph
Humidity: 100%   Direction: 140°SE
Pressure: 30.19"   Gusts: NA
Location:  36.8998°N, 94.263°W
Report Text: KHFJ 200455Z AUTO 14004KT 5SM BR BKN005 OVC008 03/03 A3019 RMK AO2
Loading
Personal Weather Stations






























Interactive Weather Map New forecast layout! Learn more

10-Day Weather Forecast

Advertisements
Track Severe Weather on mobile